sensor_id;sensor_type;location;lat;lon;timestamp;pressure;altitude;pressure_sealevel;temperature;humidity
19777;BME280;10047;42.490;26.012;2022-09-09T00:00:37;100259.16;;;18.39;100.00
19777;BME280;10047;42.490;26.012;2022-09-09T00:03:17;100358.84;;;18.68;100.00
19777;BME280;10047;42.490;26.012;2022-09-09T00:06:01;100272.56;;;18.30;100.00
19777;BME280;10047;42.490;26.012;2022-09-09T00:11:04;100349.66;;;18.79;100.00
19777;BME280;10047;42.490;26.012;2022-09-09T00:14:00;100345.06;;;18.84;100.00
19777;BME280;10047;42.490;26.012;2022-09-09T00:16:28;100350.63;;;18.77;100.00
19777;BME280;10047;42.490;26.012;2022-09-09T00:24:45;100362.03;;;18.57;100.00
19777;BME280;10047;42.490;26.012;2022-09-09T00:29:56;100370.84;;;18.69;100.00
19777;BME280;10047;42.490;26.012;2022-09-09T00:32:28;100293.97;;;17.99;100.00
19777;BME280;10047;42.490;26.012;2022-09-09T00:34:58;100257.88;;;18.00;100.00
19777;BME280;10047;42.490;26.012;2022-09-09T00:37:29;100363.88;;;18.55;100.00
19777;BME280;10047;42.490;26.012;2022-09-09T00:39:59;100306.22;;;17.78;100.00
19777;BME280;10047;42.490;26.012;2022-09-09T00:42:41;100372.38;;;18.40;100.00
19777;BME280;10047;42.490;26.012;2022-09-09T00:45:25;100372.56;;;18.37;100.00
19777;BME280;10047;42.490;26.012;2022-09-09T00:47:54;100377.38;;;18.28;100.00
19777;BME280;10047;42.490;26.012;2022-09-09T00:55:54;100361.44;;;18.68;100.00
19777;BME280;10047;42.490;26.012;2022-09-09T00:58:25;100350.22;;;18.38;100.00
19777;BME280;10047;42.490;26.012;2022-09-09T01:00:54;100286.00;;;18.03;100.00
19777;BME280;10047;42.490;26.012;2022-09-09T01:14:20;100339.81;;;18.08;100.00
19777;BME280;10047;42.490;26.012;2022-09-09T01:16:51;100272.28;;;17.72;100.00
19777;BME280;10047;42.490;26.012;2022-09-09T01:19:44;100354.84;;;18.15;100.00
19777;BME280;10047;42.490;26.012;2022-09-09T01:25:26;100351.47;;;18.46;100.00
19777;BME280;10047;42.490;26.012;2022-09-09T01:27:56;100298.38;;;18.12;100.00
19777;BME280;10047;42.490;26.012;2022-09-09T01:30:22;100358.41;;;18.13;100.00
19777;BME280;10047;42.490;26.012;2022-09-09T01:32:51;100221.53;;;17.43;100.00
19777;BME280;10047;42.490;26.012;2022-09-09T01:35:23;100342.31;;;18.25;100.00
19777;BME280;10047;42.490;26.012;2022-09-09T01:37:52;100325.69;;;18.15;100.00
19777;BME280;10047;42.490;26.012;2022-09-09T01:40:18;100333.50;;;17.81;100.00
19777;BME280;10047;42.490;26.012;2022-09-09T01:42:43;100292.09;;;17.70;100.00
19777;BME280;10047;42.490;26.012;2022-09-09T01:45:09;100337.50;;;18.19;100.00
19777;BME280;10047;42.490;26.012;2022-09-09T01:47:35;100268.44;;;17.63;100.00
19777;BME280;10047;42.490;26.012;2022-09-09T01:50:01;100275.84;;;17.85;100.00
19777;BME280;10047;42.490;26.012;2022-09-09T01:52:28;100294.25;;;17.62;100.00
19777;BME280;10047;42.490;26.012;2022-09-09T01:54:54;100221.19;;;17.16;100.00
19777;BME280;10047;42.490;26.012;2022-09-09T01:57:46;100345.00;;;18.06;100.00
19777;BME280;10047;42.490;26.012;2022-09-09T02:00:15;100337.44;;;17.88;100.00
19777;BME280;10047;42.490;26.012;2022-09-09T02:03:00;100349.75;;;17.98;100.00
19777;BME280;10047;42.490;26.012;2022-09-09T02:05:51;100282.31;;;17.61;100.00
19777;BME280;10047;42.490;26.012;2022-09-09T02:08:24;100345.09;;;17.89;100.00
19777;BME280;10047;42.490;26.012;2022-09-09T02:11:14;100348.50;;;17.90;100.00
19777;BME280;10047;42.490;26.012;2022-09-09T02:13:40;100230.03;;;17.10;100.00
19777;BME280;10047;42.490;26.012;2022-09-09T02:16:33;100298.56;;;17.77;100.00
19777;BME280;10047;42.490;26.012;2022-09-09T02:19:12;100342.44;;;18.06;100.00
19777;BME280;10047;42.490;26.012;2022-09-09T02:21:39;100344.22;;;17.73;100.00
19777;BME280;10047;42.490;26.012;2022-09-09T02:24:07;100347.38;;;17.78;100.00
19777;BME280;10047;42.490;26.012;2022-09-09T02:26:40;100290.78;;;17.28;100.00
19777;BME280;10047;42.490;26.012;2022-09-09T02:29:19;100347.19;;;17.66;100.00
19777;BME280;10047;42.490;26.012;2022-09-09T02:31:49;100323.13;;;17.67;100.00
19777;BME280;10047;42.490;26.012;2022-09-09T02:34:17;100263.13;;;17.16;100.00
19777;BME280;10047;42.490;26.012;2022-09-09T02:36:46;100213.75;;;16.94;100.00
19777;BME280;10047;42.490;26.012;2022-09-09T02:39:13;100323.28;;;17.47;100.00
19777;BME280;10047;42.490;26.012;2022-09-09T02:41:40;100250.91;;;17.04;100.00
19777;BME280;10047;42.490;26.012;2022-09-09T02:44:17;100329.31;;;17.46;100.00
19777;BME280;10047;42.490;26.012;2022-09-09T02:49:35;100328.13;;;17.35;100.00
19777;BME280;10047;42.490;26.012;2022-09-09T02:52:14;100291.13;;;17.05;100.00
19777;BME280;10047;42.490;26.012;2022-09-09T02:54:43;100260.56;;;16.65;100.00
19777;BME280;10047;42.490;26.012;2022-09-09T02:57:22;100338.47;;;17.34;100.00
19777;BME280;10047;42.490;26.012;2022-09-09T02:59:49;100320.41;;;17.35;100.00
19777;BME280;10047;42.490;26.012;2022-09-09T03:02:15;100330.63;;;17.03;100.00
19777;BME280;10047;42.490;26.012;2022-09-09T03:04:41;100280.97;;;17.02;100.00
19777;BME280;10047;42.490;26.012;2022-09-09T03:07:10;100331.59;;;17.00;100.00
19777;BME280;10047;42.490;26.012;2022-09-09T03:09:35;100270.00;;;16.65;100.00
19777;BME280;10047;42.490;26.012;2022-09-09T03:12:01;100277.97;;;16.77;100.00
19777;BME280;10047;42.490;26.012;2022-09-09T03:14:26;100327.81;;;17.07;100.00
19777;BME280;10047;42.490;26.012;2022-09-09T03:16:52;100198.34;;;16.60;100.00
19777;BME280;10047;42.490;26.012;2022-09-09T03:19:19;100330.47;;;17.40;100.00
19777;BME280;10047;42.490;26.012;2022-09-09T03:21:45;100322.59;;;16.92;100.00
19777;BME280;10047;42.490;26.012;2022-09-09T03:24:11;100290.72;;;16.79;100.00
19777;BME280;10047;42.490;26.012;2022-09-09T03:26:37;100338.41;;;17.01;100.00
19777;BME280;10047;42.490;26.012;2022-09-09T03:29:03;100320.19;;;17.06;100.00
19777;BME280;10047;42.490;26.012;2022-09-09T03:31:30;100263.44;;;16.59;100.00
19777;BME280;10047;42.490;26.012;2022-09-09T03:33:57;100291.31;;;17.52;100.00
19777;BME280;10047;42.490;26.012;2022-09-09T03:36:23;100276.28;;;16.76;100.00
19777;BME280;10047;42.490;26.012;2022-09-09T03:38:49;100261.78;;;16.39;100.00
19777;BME280;10047;42.490;26.012;2022-09-09T03:41:15;100318.88;;;16.63;100.00
19777;BME280;10047;42.490;26.012;2022-09-09T03:43:41;100326.69;;;16.60;100.00
19777;BME280;10047;42.490;26.012;2022-09-09T03:46:07;100323.88;;;16.83;100.00
19777;BME280;10047;42.490;26.012;2022-09-09T03:48:32;100312.59;;;16.69;100.00
19777;BME280;10047;42.490;26.012;2022-09-09T03:50:58;100287.09;;;16.83;100.00
19777;BME280;10047;42.490;26.012;2022-09-09T03:53:25;100313.44;;;16.86;100.00
19777;BME280;10047;42.490;26.012;2022-09-09T03:55:53;100205.06;;;16.44;100.00
19777;BME280;10047;42.490;26.012;2022-09-09T03:58:25;100327.31;;;17.01;100.00
19777;BME280;10047;42.490;26.012;2022-09-09T04:00:57;100261.03;;;16.73;100.00
19777;BME280;10047;42.490;26.012;2022-09-09T04:03:24;100339.75;;;16.91;100.00
19777;BME280;10047;42.490;26.012;2022-09-09T04:05:51;100321.66;;;16.76;100.00
19777;BME280;10047;42.490;26.012;2022-09-09T04:08:18;100328.56;;;16.92;100.00
19777;BME280;10047;42.490;26.012;2022-09-09T04:10:48;100286.00;;;16.53;100.00
19777;BME280;10047;42.490;26.012;2022-09-09T04:13:15;100332.44;;;17.01;100.00
19777;BME280;10047;42.490;26.012;2022-09-09T04:15:41;100313.78;;;16.43;100.00
19777;BME280;10047;42.490;26.012;2022-09-09T04:18:07;100332.59;;;17.66;100.00
19777;BME280;10047;42.490;26.012;2022-09-09T04:20:33;100269.25;;;16.80;100.00
19777;BME280;10047;42.490;26.012;2022-09-09T04:22:58;100265.53;;;16.32;100.00
19777;BME280;10047;42.490;26.012;2022-09-09T04:25:24;100333.19;;;17.20;100.00
19777;BME280;10047;42.490;26.012;2022-09-09T04:27:58;100327.69;;;17.10;100.00
19777;BME280;10047;42.490;26.012;2022-09-09T04:30:24;100347.88;;;17.35;100.00
19777;BME280;10047;42.490;26.012;2022-09-09T04:32:50;100355.72;;;17.32;100.00
19777;BME280;10047;42.490;26.012;2022-09-09T04:35:16;100310.69;;;17.25;100.00
19777;BME280;10047;42.490;26.012;2022-09-09T04:37:42;100320.34;;;17.03;100.00
19777;BME280;10047;42.490;26.012;2022-09-09T04:40:08;100341.59;;;17.06;100.00
19777;BME280;10047;42.490;26.012;2022-09-09T04:42:37;100365.59;;;20.31;100.00
19777;BME280;10047;42.490;26.012;2022-09-09T04:45:04;100377.34;;;18.12;100.00
19777;BME280;10047;42.490;26.012;2022-09-09T04:47:30;100375.28;;;17.86;100.00
19777;BME280;10047;42.490;26.012;2022-09-09T04:49:55;100343.13;;;17.77;100.00
19777;BME280;10047;42.490;26.012;2022-09-09T04:52:22;100361.72;;;17.67;100.00
19777;BME280;10047;42.490;26.012;2022-09-09T04:54:47;100239.84;;;17.19;100.00
19777;BME280;10047;42.490;26.012;2022-09-09T04:57:13;100323.00;;;17.53;100.00
19777;BME280;10047;42.490;26.012;2022-09-09T04:59:38;100352.88;;;17.88;100.00
19777;BME280;10047;42.490;26.012;2022-09-09T05:02:05;100373.28;;;18.08;100.00
19777;BME280;10047;42.490;26.012;2022-09-09T05:04:31;100368.13;;;18.24;100.00
19777;BME280;10047;42.490;26.012;2022-09-09T05:06:58;100246.56;;;17.72;100.00
19777;BME280;10047;42.490;26.012;2022-09-09T05:09:24;100293.50;;;18.24;100.00
19777;BME280;10047;42.490;26.012;2022-09-09T05:11:50;100309.53;;;18.44;100.00
19777;BME280;10047;42.490;26.012;2022-09-09T05:14:16;100382.50;;;19.05;100.00
19777;BME280;10047;42.490;26.012;2022-09-09T05:16:44;100353.53;;;19.16;100.00
19777;BME280;10047;42.490;26.012;2022-09-09T05:19:10;100377.03;;;19.41;100.00
19777;BME280;10047;42.490;26.012;2022-09-09T05:21:35;100291.63;;;19.02;100.00
19777;BME280;10047;42.490;26.012;2022-09-09T05:24:01;100387.84;;;19.62;100.00
19777;BME280;10047;42.490;26.012;2022-09-09T05:26:26;100332.13;;;19.87;100.00
19777;BME280;10047;42.490;26.012;2022-09-09T05:28:52;100325.22;;;19.74;100.00
19777;BME280;10047;42.490;26.012;2022-09-09T05:31:18;100381.97;;;20.30;100.00
19777;BME280;10047;42.490;26.012;2022-09-09T05:33:46;100364.94;;;20.14;100.00
19777;BME280;10047;42.490;26.012;2022-09-09T05:36:18;100300.69;;;19.81;100.00
19777;BME280;10047;42.490;26.012;2022-09-09T05:38:44;100322.31;;;20.35;100.00
19777;BME280;10047;42.490;26.012;2022-09-09T05:41:11;100368.34;;;20.14;100.00
19777;BME280;10047;42.490;26.012;2022-09-09T05:43:37;100353.25;;;20.22;100.00
19777;BME280;10047;42.490;26.012;2022-09-09T05:48:45;100369.78;;;20.87;100.00
19777;BME280;10047;42.490;26.012;2022-09-09T05:51:13;100372.84;;;20.80;100.00
19777;BME280;10047;42.490;26.012;2022-09-09T05:53:41;100330.72;;;20.65;100.00
19777;BME280;10047;42.490;26.012;2022-09-09T05:56:18;100322.00;;;21.19;100.00
19777;BME280;10047;42.490;26.012;2022-09-09T05:58:45;100377.13;;;20.93;100.00
19777;BME280;10047;42.490;26.012;2022-09-09T06:01:20;100353.13;;;20.64;100.00
19777;BME280;10047;42.490;26.012;2022-09-09T06:03:47;100333.91;;;21.34;100.00
19777;BME280;10047;42.490;26.012;2022-09-09T06:06:25;100376.47;;;21.68;100.00
19777;BME280;10047;42.490;26.012;2022-09-09T06:08:53;100386.91;;;21.79;100.00
19777;BME280;10047;42.490;26.012;2022-09-09T06:11:21;100352.22;;;21.69;100.00
19777;BME280;10047;42.490;26.012;2022-09-09T06:13:48;100329.03;;;21.80;100.00
19777;BME280;10047;42.490;26.012;2022-09-09T06:16:18;100331.16;;;22.24;100.00
19777;BME280;10047;42.490;26.012;2022-09-09T06:18:44;100336.69;;;21.44;100.00
19777;BME280;10047;42.490;26.012;2022-09-09T06:21:18;100368.88;;;22.88;100.00
19777;BME280;10047;42.490;26.012;2022-09-09T06:23:45;100391.91;;;22.92;100.00
19777;BME280;10047;42.490;26.012;2022-09-09T06:26:12;100342.09;;;22.16;100.00
19777;BME280;10047;42.490;26.012;2022-09-09T06:28:38;100283.47;;;21.78;100.00
19777;BME280;10047;42.490;26.012;2022-09-09T06:31:06;100332.53;;;22.53;100.00
19777;BME280;10047;42.490;26.012;2022-09-09T06:33:37;100334.13;;;22.30;100.00
19777;BME280;10047;42.490;26.012;2022-09-09T06:36:11;100399.63;;;23.28;100.00
19777;BME280;10047;42.490;26.012;2022-09-09T06:38:37;100382.06;;;23.78;100.00
19777;BME280;10047;42.490;26.012;2022-09-09T06:41:03;100309.78;;;22.69;100.00
19777;BME280;10047;42.490;26.012;2022-09-09T06:43:31;100342.44;;;23.06;100.00
19777;BME280;10047;42.490;26.012;2022-09-09T06:45:59;100339.53;;;24.01;100.00
19777;BME280;10047;42.490;26.012;2022-09-09T06:48:25;100360.47;;;22.97;100.00
19777;BME280;10047;42.490;26.012;2022-09-09T06:51:04;100370.63;;;24.36;100.00
19777;BME280;10047;42.490;26.012;2022-09-09T06:53:31;100327.16;;;24.16;100.00
19777;BME280;10047;42.490;26.012;2022-09-09T06:55:59;100371.91;;;23.86;100.00
19777;BME280;10047;42.490;26.012;2022-09-09T06:58:25;100344.19;;;24.08;100.00
19777;BME280;10047;42.490;26.012;2022-09-09T07:00:51;100310.25;;;23.99;100.00
19777;BME280;10047;42.490;26.012;2022-09-09T07:03:16;100376.06;;;24.86;100.00
19777;BME280;10047;42.490;26.012;2022-09-09T07:05:42;100342.06;;;24.67;100.00
19777;BME280;10047;42.490;26.012;2022-09-09T07:08:10;100333.41;;;24.13;100.00
19777;BME280;10047;42.490;26.012;2022-09-09T07:10:35;100384.75;;;25.69;100.00
19777;BME280;10047;42.490;26.012;2022-09-09T07:13:01;100369.59;;;25.33;100.00
19777;BME280;10047;42.490;26.012;2022-09-09T07:15:27;100343.50;;;25.44;100.00
19777;BME280;10047;42.490;26.012;2022-09-09T07:17:52;100396.72;;;25.51;100.00
19777;BME280;10047;42.490;26.012;2022-09-09T07:20:19;100401.25;;;25.18;100.00
19777;BME280;10047;42.490;26.012;2022-09-09T07:22:45;100391.91;;;25.98;100.00
19777;BME280;10047;42.490;26.012;2022-09-09T07:25:10;100387.09;;;25.63;100.00
19777;BME280;10047;42.490;26.012;2022-09-09T07:27:36;100305.56;;;24.89;100.00
19777;BME280;10047;42.490;26.012;2022-09-09T07:30:02;100395.72;;;26.14;100.00
19777;BME280;10047;42.490;26.012;2022-09-09T07:32:28;100311.13;;;25.67;100.00
19777;BME280;10047;42.490;26.012;2022-09-09T07:34:55;100375.44;;;24.94;100.00
19777;BME280;10047;42.490;26.012;2022-09-09T07:37:21;100380.44;;;25.79;100.00
19777;BME280;10047;42.490;26.012;2022-09-09T07:39:47;100316.03;;;26.40;100.00
19777;BME280;10047;42.490;26.012;2022-09-09T07:42:12;100326.09;;;25.45;97.75
19777;BME280;10047;42.490;26.012;2022-09-09T07:44:38;100336.22;;;25.99;87.90
19777;BME280;10047;42.490;26.012;2022-09-09T07:47:05;100366.75;;;25.87;90.16
19777;BME280;10047;42.490;26.012;2022-09-09T07:49:31;100369.13;;;25.69;97.02
19777;BME280;10047;42.490;26.012;2022-09-09T07:51:57;100327.53;;;25.89;100.00
19777;BME280;10047;42.490;26.012;2022-09-09T07:54:23;100386.38;;;25.91;93.91
19777;BME280;10047;42.490;26.012;2022-09-09T07:56:50;100380.69;;;26.37;91.45
19777;BME280;10047;42.490;26.012;2022-09-09T07:59:16;100307.03;;;26.73;90.10
19777;BME280;10047;42.490;26.012;2022-09-09T08:01:44;100316.50;;;26.74;87.29
19777;BME280;10047;42.490;26.012;2022-09-09T08:04:13;100319.13;;;26.93;82.02
19777;BME280;10047;42.490;26.012;2022-09-09T08:06:42;100388.75;;;26.74;82.08
19777;BME280;10047;42.490;26.012;2022-09-09T08:09:09;100323.22;;;25.68;87.07
19777;BME280;10047;42.490;26.012;2022-09-09T08:11:35;100333.66;;;26.86;77.96
19777;BME280;10047;42.490;26.012;2022-09-09T08:14:02;100378.47;;;27.10;79.21
19777;BME280;10047;42.490;26.012;2022-09-09T08:16:31;100337.66;;;26.71;75.25
19777;BME280;10047;42.490;26.012;2022-09-09T08:18:57;100316.97;;;27.44;72.81
19777;BME280;10047;42.490;26.012;2022-09-09T08:21:27;100373.38;;;27.84;69.13
19777;BME280;10047;42.490;26.012;2022-09-09T08:23:54;100315.34;;;27.24;68.48
19777;BME280;10047;42.490;26.012;2022-09-09T08:26:32;100331.69;;;27.55;63.82
19777;BME280;10047;42.490;26.012;2022-09-09T08:29:00;100379.75;;;28.18;67.46
19777;BME280;10047;42.490;26.012;2022-09-09T08:31:28;100368.03;;;28.22;64.44
19777;BME280;10047;42.490;26.012;2022-09-09T08:33:56;100269.16;;;27.34;64.30
19777;BME280;10047;42.490;26.012;2022-09-09T08:36:23;100377.22;;;27.99;65.96
19777;BME280;10047;42.490;26.012;2022-09-09T08:38:53;100318.91;;;27.42;66.20
19777;BME280;10047;42.490;26.012;2022-09-09T08:49:31;100366.91;;;28.87;60.66
19777;BME280;10047;42.490;26.012;2022-09-09T08:52:11;100312.19;;;28.58;60.42
19777;BME280;10047;42.490;26.012;2022-09-09T08:54:37;100358.16;;;28.78;58.75
19777;BME280;10047;42.490;26.012;2022-09-09T08:57:13;100248.84;;;27.56;59.66
19777;BME280;10047;42.490;26.012;2022-09-09T08:59:39;100325.56;;;26.89;64.86
19777;BME280;10047;42.490;26.012;2022-09-09T09:08:17;100331.38;;;27.58;61.63
19777;BME280;10047;42.490;26.012;2022-09-09T09:10:49;100323.81;;;27.92;60.86
19777;BME280;10047;42.490;26.012;2022-09-09T09:13:21;100322.66;;;28.58;57.83
19777;BME280;10047;42.490;26.012;2022-09-09T09:15:55;100299.72;;;28.43;55.77
19777;BME280;10047;42.490;26.012;2022-09-09T09:18:23;100320.97;;;29.28;55.99
19777;BME280;10047;42.490;26.012;2022-09-09T09:20:55;100308.63;;;28.05;58.77
19777;BME280;10047;42.490;26.012;2022-09-09T09:23:26;100263.63;;;28.46;57.70
19777;BME280;10047;42.490;26.012;2022-09-09T09:25:59;100300.19;;;28.73;55.17
19777;BME280;10047;42.490;26.012;2022-09-09T09:28:27;100308.41;;;28.78;56.89
19777;BME280;10047;42.490;26.012;2022-09-09T09:30:55;100308.25;;;28.00;56.44
19777;BME280;10047;42.490;26.012;2022-09-09T09:35:57;100256.97;;;28.34;54.91
19777;BME280;10047;42.490;26.012;2022-09-09T09:38:26;100297.00;;;28.62;55.00
19777;BME280;10047;42.490;26.012;2022-09-09T09:40:58;100266.31;;;28.72;53.82
19777;BME280;10047;42.490;26.012;2022-09-09T09:43:29;100236.13;;;28.60;54.64
19777;BME280;10047;42.490;26.012;2022-09-09T09:45:55;100277.81;;;29.48;52.27
19777;BME280;10047;42.490;26.012;2022-09-09T09:48:23;100268.25;;;29.13;55.08
19777;BME280;10047;42.490;26.012;2022-09-09T09:50:52;100282.66;;;29.68;53.07
19777;BME280;10047;42.490;26.012;2022-09-09T09:53:27;100281.81;;;30.02;53.53
19777;BME280;10047;42.490;26.012;2022-09-09T09:56:05;100237.06;;;29.02;51.40
19777;BME280;10047;42.490;26.012;2022-09-09T09:58:38;100267.53;;;29.96;52.32
19777;BME280;10047;42.490;26.012;2022-09-09T10:01:33;100288.22;;;29.91;50.33
19777;BME280;10047;42.490;26.012;2022-09-09T10:04:03;100273.25;;;30.65;49.39
19777;BME280;10047;42.490;26.012;2022-09-09T10:06:39;100269.50;;;30.52;48.67
19777;BME280;10047;42.490;26.012;2022-09-09T10:09:28;100279.13;;;29.77;50.26
19777;BME280;10047;42.490;26.012;2022-09-09T10:12:30;100279.66;;;29.22;53.94
19777;BME280;10047;42.490;26.012;2022-09-09T10:15:30;100265.06;;;29.86;50.07
19777;BME280;10047;42.490;26.012;2022-09-09T10:21:45;100262.16;;;29.64;53.56
19777;BME280;10047;42.490;26.012;2022-09-09T10:34:45;100252.34;;;30.24;55.19
19777;BME280;10047;42.490;26.012;2022-09-09T10:43:01;100209.91;;;30.28;50.08
19777;BME280;10047;42.490;26.012;2022-09-09T10:45:41;100234.53;;;30.67;48.94
19777;BME280;10047;42.490;26.012;2022-09-09T10:50:55;100244.03;;;30.76;49.96
19777;BME280;10047;42.490;26.012;2022-09-09T10:55:57;100243.59;;;29.83;57.42
19777;BME280;10047;42.490;26.012;2022-09-09T10:58:31;100177.41;;;30.53;54.40
19777;BME280;10047;42.490;26.012;2022-09-09T11:01:02;100222.38;;;30.91;51.23
19777;BME280;10047;42.490;26.012;2022-09-09T11:03:35;100154.44;;;30.55;48.95
19777;BME280;10047;42.490;26.012;2022-09-09T11:06:06;100218.72;;;31.16;50.79
19777;BME280;10047;42.490;26.012;2022-09-09T11:08:38;100217.44;;;30.31;54.02
19777;BME280;10047;42.490;26.012;2022-09-09T11:13:42;100222.53;;;30.65;50.96
19777;BME280;10047;42.490;26.012;2022-09-09T11:16:30;100203.97;;;30.91;52.80
19777;BME280;10047;42.490;26.012;2022-09-09T11:19:34;100197.22;;;30.96;51.26
19777;BME280;10047;42.490;26.012;2022-09-09T11:25:29;100190.75;;;31.61;49.05
19777;BME280;10047;42.490;26.012;2022-09-09T11:41:46;100157.84;;;31.66;49.24
19777;BME280;10047;42.490;26.012;2022-09-09T11:44:17;100103.59;;;31.42;48.31
19777;BME280;10047;42.490;26.012;2022-09-09T11:46:45;100165.41;;;31.30;53.31
19777;BME280;10047;42.490;26.012;2022-09-09T11:49:53;100157.66;;;31.06;47.46
19777;BME280;10047;42.490;26.012;2022-09-09T11:58:03;100123.47;;;31.44;49.78
19777;BME280;10047;42.490;26.012;2022-09-09T12:02:55;100060.25;;;31.83;46.94
19777;BME280;10047;42.490;26.012;2022-09-09T12:05:20;100074.19;;;31.69;46.71
19777;BME280;10047;42.490;26.012;2022-09-09T12:07:55;100139.66;;;31.87;47.15
19777;BME280;10047;42.490;26.012;2022-09-09T12:10:30;100137.56;;;32.05;45.19
19777;BME280;10047;42.490;26.012;2022-09-09T12:13:17;100133.28;;;32.04;46.00
19777;BME280;10047;42.490;26.012;2022-09-09T12:15:53;100077.50;;;32.23;45.77
19777;BME280;10047;42.490;26.012;2022-09-09T12:18:25;100044.81;;;31.80;47.68
19777;BME280;10047;42.490;26.012;2022-09-09T12:24:00;100104.00;;;32.21;44.97
19777;BME280;10047;42.490;26.012;2022-09-09T12:26:32;100035.50;;;31.55;45.91
19777;BME280;10047;42.490;26.012;2022-09-09T12:32:13;100023.84;;;31.72;44.13
19777;BME280;10047;42.490;26.012;2022-09-09T12:34:47;100084.72;;;31.38;45.50
19777;BME280;10047;42.490;26.012;2022-09-09T12:37:49;100069.19;;;31.21;44.76
19777;BME280;10047;42.490;26.012;2022-09-09T12:40:27;99998.88;;;32.05;42.86
19777;BME280;10047;42.490;26.012;2022-09-09T12:42:53;99979.19;;;32.01;42.78
19777;BME280;10047;42.490;26.012;2022-09-09T12:45:25;100056.81;;;32.20;42.45
19777;BME280;10047;42.490;26.012;2022-09-09T12:48:01;100060.69;;;32.09;43.05
19777;BME280;10047;42.490;26.012;2022-09-09T12:50:32;100006.19;;;32.62;42.13
19777;BME280;10047;42.490;26.012;2022-09-09T12:53:07;100035.84;;;32.85;42.88
19777;BME280;10047;42.490;26.012;2022-09-09T12:55:36;99971.22;;;32.38;41.68
19777;BME280;10047;42.490;26.012;2022-09-09T12:58:04;100069.84;;;32.65;41.17
19777;BME280;10047;42.490;26.012;2022-09-09T13:00:31;100009.72;;;32.39;43.44
19777;BME280;10047;42.490;26.012;2022-09-09T13:02:59;99967.91;;;31.55;41.74
19777;BME280;10047;42.490;26.012;2022-09-09T13:07:51;100014.34;;;32.67;41.43
19777;BME280;10047;42.490;26.012;2022-09-09T13:10:29;99994.09;;;32.53;42.47
19777;BME280;10047;42.490;26.012;2022-09-09T13:12:55;99996.63;;;32.02;42.46
19777;BME280;10047;42.490;26.012;2022-09-09T13:15:24;99930.38;;;31.61;42.27
19777;BME280;10047;42.490;26.012;2022-09-09T13:18:00;99993.63;;;32.05;43.02
19777;BME280;10047;42.490;26.012;2022-09-09T13:20:28;99984.63;;;31.63;42.22
19777;BME280;10047;42.490;26.012;2022-09-09T13:22:55;100018.06;;;32.28;43.24
19777;BME280;10047;42.490;26.012;2022-09-09T13:25:26;100031.13;;;32.22;42.85
19777;BME280;10047;42.490;26.012;2022-09-09T13:28:04;99966.75;;;30.90;45.38
19777;BME280;10047;42.490;26.012;2022-09-09T13:33:23;100005.09;;;31.52;44.32
19777;BME280;10047;42.490;26.012;2022-09-09T13:35:55;100009.06;;;32.08;44.35
19777;BME280;10047;42.490;26.012;2022-09-09T13:38:21;99960.50;;;31.96;43.76
19777;BME280;10047;42.490;26.012;2022-09-09T13:41:02;99923.94;;;32.16;43.55
19777;BME280;10047;42.490;26.012;2022-09-09T13:43:31;99929.97;;;32.31;42.25
19777;BME280;10047;42.490;26.012;2022-09-09T13:46:01;99936.97;;;32.09;42.92
19777;BME280;10047;42.490;26.012;2022-09-09T13:48:27;99957.59;;;32.20;43.65
19777;BME280;10047;42.490;26.012;2022-09-09T13:51:02;99956.88;;;32.56;45.62
19777;BME280;10047;42.490;26.012;2022-09-09T13:53:29;99985.75;;;32.34;42.55
19777;BME280;10047;42.490;26.012;2022-09-09T13:55:57;99974.47;;;31.37;45.35
19777;BME280;10047;42.490;26.012;2022-09-09T13:58:24;99911.25;;;30.54;46.10
19777;BME280;10047;42.490;26.012;2022-09-09T14:00:52;100001.78;;;31.28;49.81
19777;BME280;10047;42.490;26.012;2022-09-09T14:03:18;99987.66;;;31.29;45.92
19777;BME280;10047;42.490;26.012;2022-09-09T14:05:45;100010.13;;;31.09;48.50
19777;BME280;10047;42.490;26.012;2022-09-09T14:08:19;99953.47;;;30.75;47.53
19777;BME280;10047;42.490;26.012;2022-09-09T14:10:46;99944.31;;;31.25;48.94
19777;BME280;10047;42.490;26.012;2022-09-09T14:13:12;99977.47;;;31.26;47.17
19777;BME280;10047;42.490;26.012;2022-09-09T14:15:37;99986.94;;;31.43;46.20
19777;BME280;10047;42.490;26.012;2022-09-09T14:18:03;99990.47;;;31.50;46.06
19777;BME280;10047;42.490;26.012;2022-09-09T14:20:29;99976.91;;;31.16;55.05
19777;BME280;10047;42.490;26.012;2022-09-09T14:22:54;99910.19;;;30.94;50.19
19777;BME280;10047;42.490;26.012;2022-09-09T14:25:20;99913.00;;;30.93;48.08
19777;BME280;10047;42.490;26.012;2022-09-09T14:27:45;99979.59;;;31.30;50.26
19777;BME280;10047;42.490;26.012;2022-09-09T14:30:11;99912.31;;;31.44;54.11
19777;BME280;10047;42.490;26.012;2022-09-09T14:32:37;99957.81;;;31.67;47.58
19777;BME280;10047;42.490;26.012;2022-09-09T14:35:03;99955.47;;;31.87;50.18
19777;BME280;10047;42.490;26.012;2022-09-09T14:37:28;99965.94;;;31.95;48.25
19777;BME280;10047;42.490;26.012;2022-09-09T14:39:55;99942.38;;;31.19;50.27
19777;BME280;10047;42.490;26.012;2022-09-09T14:42:21;99953.97;;;31.10;52.23
19777;BME280;10047;42.490;26.012;2022-09-09T14:44:47;99952.66;;;31.28;50.92
19777;BME280;10047;42.490;26.012;2022-09-09T14:47:13;99892.97;;;30.38;55.34